KELY/ELY METAR and TAF weather

Enter ICAO airport designator
Station Type Date Time Source
KELY METAR 2019/12/05 22:53 UTC NOAA

KELY 052253Z AUTO 00000KT 10SM CLR 05/M01 A3016 RMK AO2 SLP200 T00501006


Station Type Date Time Source
KELY Decoded METAR 2019/12/05 22:53 UTC NOAA

ELY AIRPORT (YELLAND FIELD), NV, United States (KELY) 39-18N 114-51W 1906M
Dec 05, 2019 - 05:53 PM EST / 2019.12.05 2253 UTC
Wind: Calm:0
Visibility: 10 mile(s):0
Sky conditions: clear
Temperature: 41.0 F (5.0 C)
Dew Point: 30.9 F (-0.6 C)
Relative Humidity: 67%
Pressure (altimeter): 30.16 in. Hg (1021 hPa)
ob: KELY 052253Z AUTO 00000KT 10SM CLR 05/M01 A3016 RMK AO2 SLP200 T00501006
cycle: 23

Station Type Date Time Source
KELY TAF 2019/12/05 18:42 UTC NOAA

TAF KELY 051739Z 0518/0618 VRB03KT P6SM SCT030 BKN050 OVC150
FM052100 VRB03KT P6SM FEW035 SCT050 BKN150
FM060800 17007KT P6SM SCT150 SCT200
FM061400 17007KT P6SM VCFG SCT200

Example: see airport list